Time;durP1;ratioP1;P1;durP2;ratioP2;P2;SDS_P1;SDS_P2;PMS_P1;PMS_P2;Temp;Humidity;BMP_temperature;BMP_pressure;BME280_temperature;BME280_humidity;BME280_pressure;Samples;Min_cycle;Max_cycle;Signal;HPM_P1;HPM_P2
2022/10/16 00:01:35;;;;;;;2.87;2.00;;;18.50;99.90;;;;;;5018401;28;20513;-63
2022/10/16 00:04:02;;;;;;;2.23;1.70;;;18.40;99.90;;;;;;5019904;28;20211;-65
2022/10/16 00:06:28;;;;;;;4.50;2.00;;;18.50;99.90;;;;;;5015969;28;20242;-63
2022/10/16 00:08:55;;;;;;;2.97;2.10;;;18.50;99.90;;;;;;5017438;28;20497;-63
2022/10/16 00:11:23;;;;;;;3.47;1.83;;;18.50;99.90;;;;;;5006437;28;20590;-63
2022/10/16 00:13:51;;;;;;;2.67;1.90;;;18.40;99.90;;;;;;5013785;28;20428;-63
2022/10/16 00:16:18;;;;;;;2.67;1.97;;;18.40;99.90;;;;;;5016557;28;20431;-64
2022/10/16 00:18:44;;;;;;;4.20;2.20;;;18.40;99.90;;;;;;5013330;28;20439;-64
2022/10/16 00:21:12;;;;;;;2.50;1.83;;;18.40;99.90;;;;;;5014578;28;20439;-64
2022/10/16 00:23:38;;;;;;;7.00;2.07;;;18.40;99.90;;;;;;5015393;28;21058;-63
2022/10/16 00:26:08;;;;;;;5.30;2.30;;;18.40;99.90;;;;;;5015620;28;20449;-63
2022/10/16 00:28:34;;;;;;;5.60;1.90;;;18.40;99.90;;;;;;5017758;28;20836;-63
2022/10/16 00:31:03;;;;;;;2.57;2.17;;;18.40;99.90;;;;;;5009327;28;20438;-64
2022/10/16 00:33:29;;;;;;;2.83;2.10;;;18.40;99.90;;;;;;5014277;28;20426;-63
2022/10/16 00:35:58;;;;;;;2.10;1.80;;;18.40;99.90;;;;;;5016406;28;20439;-63
2022/10/16 00:38:23;;;;;;;2.70;2.40;;;18.40;99.90;;;;;;5019928;28;20192;-64
2022/10/16 00:40:49;;;;;;;4.23;2.40;;;18.40;99.90;;;;;;5018026;28;20516;-65
2022/10/16 00:43:35;;;;;;;2.63;2.00;;;18.40;99.90;;;;;;5022461;28;20213;-64
2022/10/16 00:46:03;;;;;;;2.30;1.90;;;18.40;99.90;;;;;;5019905;28;20712;-64
2022/10/16 00:48:29;;;;;;;2.50;2.13;;;18.40;99.90;;;;;;5019325;28;20466;-65
2022/10/16 00:50:56;;;;;;;2.50;2.10;;;18.30;99.90;;;;;;5016031;28;21034;-65
2022/10/16 00:53:23;;;;;;;2.67;1.90;;;18.40;99.90;;;;;;4996192;28;20844;-65
2022/10/16 00:55:48;;;;;;;2.40;2.00;;;18.40;99.90;;;;;;5000973;28;20941;-65
2022/10/16 00:58:14;;;;;;;3.00;2.30;;;18.40;99.90;;;;;;5006313;28;20428;-65
2022/10/16 01:00:39;;;;;;;8.47;3.03;;;18.40;99.90;;;;;;5012897;28;20181;-65
2022/10/16 01:03:32;;;;;;;4.60;2.33;;;18.40;99.90;;;;;;5017338;28;20220;-65
2022/10/16 01:06:31;;;;;;;2.37;2.13;;;18.40;99.90;;;;;;5022360;28;20192;-65
2022/10/16 01:09:21;;;;;;;2.70;1.90;;;18.40;99.90;;;;;;5006182;28;20498;-65
2022/10/16 01:11:50;;;;;;;3.40;2.00;;;18.40;99.90;;;;;;5012038;28;20644;-65
2022/10/16 01:14:28;;;;;;;3.23;2.27;;;18.40;99.90;;;;;;5009735;28;21182;-65
2022/10/16 01:17:17;;;;;;;2.60;1.90;;;18.40;99.90;;;;;;5023058;28;21206;-65
2022/10/16 01:20:10;;;;;;;10.13;2.00;;;18.40;99.90;;;;;;5021892;28;20542;-65
2022/10/16 01:23:06;;;;;;;3.20;2.00;;;18.30;99.90;;;;;;5022917;28;20443;-65
2022/10/16 01:25:39;;;;;;;2.93;2.13;;;18.40;99.90;;;;;;5024489;28;20516;-65
2022/10/16 01:28:08;;;;;;;4.30;2.20;;;18.40;99.90;;;;;;5021322;28;21146;-65
2022/10/16 01:30:36;;;;;;;4.30;2.50;;;18.40;99.90;;;;;;5014434;28;20439;-65
2022/10/16 01:33:04;;;;;;;5.93;2.40;;;18.40;99.90;;;;;;5016984;28;20456;-65
2022/10/16 01:35:36;;;;;;;2.97;2.20;;;18.30;99.90;;;;;;5020006;28;20876;-65
2022/10/16 01:38:17;;;;;;;4.50;2.50;;;18.30;99.90;;;;;;5023292;28;20447;-65
2022/10/16 01:40:49;;;;;;;2.70;2.33;;;18.30;99.90;;;;;;5014946;28;20434;-65
2022/10/16 01:43:19;;;;;;;5.30;2.33;;;18.30;99.90;;;;;;5016616;28;20444;-65
2022/10/16 01:45:46;;;;;;;5.20;2.17;;;18.30;99.90;;;;;;5019369;28;20987;-65
2022/10/16 01:48:14;;;;;;;5.43;2.60;;;18.30;99.90;;;;;;5018986;28;20514;-65
2022/10/16 01:50:43;;;;;;;2.73;2.50;;;18.20;99.90;;;;;;5001909;28;20967;-64
2022/10/16 01:53:13;;;;;;;3.53;2.70;;;18.20;99.90;;;;;;5013312;28;20589;-64
2022/10/16 01:55:44;;;;;;;6.27;2.97;;;18.30;99.90;;;;;;5005667;28;20427;-64
2022/10/16 01:58:12;;;;;;;5.60;2.87;;;18.20;99.90;;;;;;5018863;28;20430;-63
2022/10/16 02:00:42;;;;;;;5.93;3.10;;;18.20;99.90;;;;;;5021297;28;20664;-64
2022/10/16 02:03:10;;;;;;;4.67;2.73;;;18.20;99.90;;;;;;5013211;28;20478;-65
2022/10/16 02:05:56;;;;;;;4.17;2.73;;;18.20;99.90;;;;;;5021104;28;20952;-64
2022/10/16 02:08:24;;;;;;;4.17;3.17;;;18.20;99.90;;;;;;5024596;28;20534;-64
2022/10/16 02:10:50;;;;;;;5.37;2.97;;;18.20;99.90;;;;;;5020137;28;20807;-64
2022/10/16 02:13:28;;;;;;;2.83;2.50;;;18.20;99.90;;;;;;5023244;28;20423;-64
2022/10/16 02:15:54;;;;;;;3.73;2.70;;;18.20;99.90;;;;;;5019160;28;20840;-64
2022/10/16 02:18:21;;;;;;;4.03;3.20;;;18.20;99.90;;;;;;5022097;28;20529;-64
2022/10/16 02:20:58;;;;;;;4.50;2.80;;;18.10;99.90;;;;;;5015135;28;20172;-64
2022/10/16 02:23:49;;;;;;;4.13;2.60;;;18.10;99.90;;;;;;5017313;28;20516;-64
2022/10/16 02:26:18;;;;;;;5.23;2.80;;;18.10;99.90;;;;;;4975643;28;20451;-64
2022/10/16 02:28:52;;;;;;;3.83;2.33;;;18.10;99.90;;;;;;5008978;28;20501;-64
2022/10/16 02:31:26;;;;;;;3.73;2.30;;;18.10;99.90;;;;;;5018046;28;20455;-64
2022/10/16 02:33:54;;;;;;;4.60;2.43;;;18.10;99.90;;;;;;5021597;28;20464;-64
2022/10/16 02:36:21;;;;;;;3.20;2.83;;;18.10;99.90;;;;;;5018520;28;20522;-64
2022/10/16 02:38:46;;;;;;;3.47;2.07;;;18.10;99.90;;;;;;5020569;28;20447;-64
2022/10/16 02:41:12;;;;;;;2.90;2.27;;;18.10;99.90;;;;;;5011814;28;20431;-64
2022/10/16 02:43:38;;;;;;;2.77;2.30;;;18.10;99.90;;;;;;5016118;28;20649;-63
2022/10/16 02:46:03;;;;;;;5.13;2.50;;;18.10;99.90;;;;;;5023194;28;20687;-63
2022/10/16 02:48:29;;;;;;;4.70;2.37;;;18.10;99.90;;;;;;5019780;28;20196;-65
2022/10/16 02:50:54;;;;;;;4.43;3.10;;;18.10;99.90;;;;;;5015637;28;20684;-62
2022/10/16 02:53:20;;;;;;;2.60;2.00;;;18.10;99.90;;;;;;5017085;28;20278;-62
2022/10/16 02:55:45;;;;;;;4.47;2.40;;;18.10;99.90;;;;;;5019570;28;20204;-65
2022/10/16 02:58:11;;;;;;;2.60;2.40;;;18.10;99.90;;;;;;5017167;28;20195;-63
2022/10/16 03:00:36;;;;;;;2.70;2.07;;;18.10;99.90;;;;;;5018492;28;20216;-63
2022/10/16 03:03:02;;;;;;;3.07;2.00;;;18.10;99.90;;;;;;5018361;28;20228;-64
2022/10/16 03:05:28;;;;;;;3.93;2.30;;;18.10;99.90;;;;;;5019086;28;20220;-63
2022/10/16 03:07:53;;;;;;;4.30;2.63;;;18.10;99.90;;;;;;5017473;28;20223;-63
2022/10/16 03:10:19;;;;;;;2.93;2.40;;;18.10;99.90;;;;;;5015742;28;20213;-63
2022/10/16 03:12:44;;;;;;;5.30;2.37;;;18.10;99.90;;;;;;5015263;28;20220;-63
2022/10/16 03:15:10;;;;;;;5.87;2.77;;;18.10;99.90;;;;;;5012316;28;20208;-64
2022/10/16 03:17:36;;;;;;;3.30;2.37;;;18.10;99.90;;;;;;5022080;28;20177;-64
2022/10/16 03:20:01;;;;;;;6.70;2.13;;;18.10;99.90;;;;;;5016521;28;20192;-63
2022/10/16 03:22:27;;;;;;;2.63;2.23;;;18.10;99.90;;;;;;5017408;28;20208;-64
2022/10/16 03:24:52;;;;;;;4.80;2.83;;;18.10;99.90;;;;;;5016266;28;20188;-63
2022/10/16 03:27:18;;;;;;;4.03;2.47;;;18.10;99.90;;;;;;5019492;28;20631;-63
2022/10/16 03:29:43;;;;;;;6.10;2.80;;;18.10;99.90;;;;;;5018298;28;20246;-63
2022/10/16 03:32:09;;;;;;;4.63;2.70;;;18.10;99.90;;;;;;4995480;28;20283;-64
2022/10/16 03:34:35;;;;;;;3.50;3.00;;;18.10;99.90;;;;;;5003714;28;20866;-63
2022/10/16 03:37:00;;;;;;;3.03;2.23;;;18.10;99.90;;;;;;5015678;28;20172;-63
2022/10/16 03:39:26;;;;;;;4.60;2.57;;;18.10;99.90;;;;;;5013181;28;20220;-63
2022/10/16 03:41:52;;;;;;;2.77;2.40;;;18.00;99.90;;;;;;5011134;28;20200;-63
2022/10/16 03:44:18;;;;;;;9.50;2.97;;;18.00;99.90;;;;;;5018636;28;20440;-63
2022/10/16 03:46:43;;;;;;;6.63;3.10;;;18.00;99.90;;;;;;5020308;28;20267;-63
2022/10/16 03:49:09;;;;;;;4.93;3.50;;;18.00;99.90;;;;;;5017996;28;20208;-63
2022/10/16 03:51:34;;;;;;;5.47;3.17;;;18.00;99.90;;;;;;5016461;28;20337;-63
2022/10/16 03:54:00;;;;;;;5.30;2.30;;;18.00;99.90;;;;;;5020143;28;20204;-63
2022/10/16 03:56:26;;;;;;;5.40;3.40;;;18.00;99.90;;;;;;5017268;28;20177;-64
2022/10/16 03:58:51;;;;;;;4.10;3.30;;;18.00;99.90;;;;;;5019890;28;20276;-63
2022/10/16 04:01:17;;;;;;;9.20;2.77;;;18.00;99.90;;;;;;5017541;28;20208;-63
2022/10/16 04:03:42;;;;;;;4.03;3.47;;;18.00;99.90;;;;;;5016646;28;20336;-65
2022/10/16 04:06:08;;;;;;;3.53;3.03;;;18.00;99.90;;;;;;5021257;28;20185;-64
2022/10/16 04:08:36;;;;;;;4.13;3.00;;;18.00;99.90;;;;;;5015923;28;20228;-64
2022/10/16 04:11:02;;;;;;;3.20;2.60;;;18.00;99.90;;;;;;5013977;28;21023;-64
2022/10/16 04:13:28;;;;;;;3.20;2.77;;;18.00;99.90;;;;;;5019442;28;20422;-64
2022/10/16 04:15:53;;;;;;;5.10;3.10;;;18.00;99.90;;;;;;5020581;28;21168;-64
2022/10/16 04:18:19;;;;;;;3.40;3.10;;;18.00;99.90;;;;;;5023115;28;20180;-64
2022/10/16 04:20:44;;;;;;;3.73;3.10;;;18.00;99.90;;;;;;5011460;28;20272;-65
2022/10/16 04:23:10;;;;;;;3.50;3.00;;;18.00;99.90;;;;;;5017298;28;20233;-64
2022/10/16 04:25:35;;;;;;;5.23;4.00;;;18.00;99.90;;;;;;5016079;28;20181;-64
2022/10/16 04:28:01;;;;;;;4.83;2.73;;;18.00;99.90;;;;;;5019335;28;20196;-64
2022/10/16 04:30:26;;;;;;;5.27;3.20;;;18.00;99.90;;;;;;5020698;28;20189;-64
2022/10/16 04:32:52;;;;;;;4.70;2.93;;;18.00;99.90;;;;;;5021301;28;20713;-64
2022/10/16 04:35:19;;;;;;;3.87;2.80;;;18.00;99.90;;;;;;5020785;28;20275;-65
2022/10/16 04:37:45;;;;;;;3.00;2.70;;;18.00;99.90;;;;;;5020250;28;20431;-65
2022/10/16 04:40:11;;;;;;;5.50;3.27;;;18.00;99.90;;;;;;5020545;28;20998;-65
2022/10/16 04:42:36;;;;;;;4.00;2.57;;;18.00;99.90;;;;;;5018989;28;20677;-65
2022/10/16 04:45:03;;;;;;;3.97;3.27;;;18.00;99.90;;;;;;5018279;28;20188;-64
2022/10/16 04:47:29;;;;;;;4.80;3.50;;;18.00;99.90;;;;;;5020804;28;20635;-65
2022/10/16 04:49:54;;;;;;;4.20;2.73;;;18.00;99.90;;;;;;5017436;28;20557;-65
2022/10/16 04:52:21;;;;;;;3.43;3.07;;;18.00;99.90;;;;;;5015376;28;20512;-64
2022/10/16 04:54:47;;;;;;;4.93;3.00;;;17.90;99.90;;;;;;5018005;28;20649;-66
2022/10/16 04:57:12;;;;;;;4.23;3.40;;;17.90;99.90;;;;;;5023428;28;20439;-63
2022/10/16 04:59:38;;;;;;;3.73;3.43;;;17.90;99.90;;;;;;5022205;28;20200;-64
2022/10/16 05:02:03;;;;;;;6.67;3.63;;;18.00;99.90;;;;;;5013935;28;20279;-64
2022/10/16 05:04:29;;;;;;;3.83;3.43;;;18.00;99.90;;;;;;5014356;28;20168;-63
2022/10/16 05:06:54;;;;;;;3.67;2.90;;;18.00;99.90;;;;;;5014895;28;20264;-64
2022/10/16 05:09:20;;;;;;;4.00;3.00;;;18.00;99.90;;;;;;5020233;28;20232;-63
2022/10/16 05:11:46;;;;;;;3.70;3.10;;;18.00;99.90;;;;;;5023975;28;20645;-63
2022/10/16 05:14:11;;;;;;;6.90;3.47;;;18.00;99.90;;;;;;5021901;28;20191;-64
2022/10/16 05:16:37;;;;;;;4.33;3.40;;;18.00;99.90;;;;;;5022706;28;20199;-64
2022/10/16 05:19:02;;;;;;;3.97;3.53;;;17.90;99.90;;;;;;5021423;28;20569;-65
2022/10/16 05:21:28;;;;;;;6.50;3.50;;;17.90;99.90;;;;;;5017882;28;20284;-63
2022/10/16 05:23:55;;;;;;;5.80;5.20;;;17.90;99.90;;;;;;5018837;28;20180;-65
2022/10/16 05:26:21;;;;;;;4.27;3.10;;;17.90;99.90;;;;;;5023608;28;20191;-63
2022/10/16 05:28:46;;;;;;;4.17;2.97;;;17.90;99.90;;;;;;5021222;28;20453;-65
2022/10/16 05:31:12;;;;;;;4.43;3.00;;;17.90;99.90;;;;;;5019796;28;20947;-64
2022/10/16 05:33:37;;;;;;;4.93;3.10;;;17.90;99.90;;;;;;5022134;28;20682;-64
2022/10/16 05:36:05;;;;;;;3.40;2.87;;;17.90;99.90;;;;;;5014606;28;20199;-64
2022/10/16 05:38:31;;;;;;;4.30;3.10;;;17.90;99.90;;;;;;5013024;28;20637;-64
2022/10/16 05:40:57;;;;;;;4.03;3.63;;;17.90;99.90;;;;;;5013306;28;20537;-64
2022/10/16 05:43:23;;;;;;;3.43;2.97;;;17.80;99.90;;;;;;5023901;28;20168;-64
2022/10/16 05:46:00;;;;;;;5.20;3.03;;;17.80;99.90;;;;;;5018248;28;20534;-64
2022/10/16 05:48:27;;;;;;;4.23;3.40;;;17.80;99.90;;;;;;5019279;28;20204;-64
2022/10/16 05:51:01;;;;;;;4.73;3.00;;;17.80;99.90;;;;;;5021471;28;20439;-64
2022/10/16 05:53:31;;;;;;;7.20;4.90;;;17.80;99.90;;;;;;5020365;28;20967;-64
2022/10/16 05:55:57;;;;;;;4.50;2.93;;;17.80;99.90;;;;;;5021347;28;20439;-64
2022/10/16 05:58:24;;;;;;;4.00;2.70;;;17.80;99.90;;;;;;5022382;28;20411;-64
2022/10/16 06:00:57;;;;;;;4.60;3.03;;;17.80;99.90;;;;;;5017362;28;20435;-64
2022/10/16 06:03:23;;;;;;;6.93;3.17;;;17.80;99.90;;;;;;5020750;28;20501;-64
2022/10/16 06:05:48;;;;;;;3.17;2.40;;;17.80;99.90;;;;;;5014636;28;20459;-64
2022/10/16 06:08:14;;;;;;;6.87;2.77;;;17.80;99.90;;;;;;5020168;28;20565;-63
2022/10/16 06:10:40;;;;;;;4.53;2.67;;;17.70;99.90;;;;;;5011535;28;20292;-64
2022/10/16 06:13:05;;;;;;;5.83;2.40;;;17.80;99.90;;;;;;5015281;28;20209;-64
2022/10/16 06:15:31;;;;;;;4.00;2.63;;;17.70;99.90;;;;;;5020186;28;20196;-64
2022/10/16 06:17:56;;;;;;;3.30;2.77;;;17.80;99.90;;;;;;5019694;28;20558;-66
2022/10/16 06:20:22;;;;;;;3.53;2.17;;;17.70;99.90;;;;;;5018686;28;20262;-64
2022/10/16 06:22:47;;;;;;;2.87;2.40;;;17.70;99.90;;;;;;5022633;28;20212;-64
2022/10/16 06:25:13;;;;;;;5.03;3.40;;;17.70;99.90;;;;;;5022028;28;20714;-64
2022/10/16 06:27:41;;;;;;;5.77;2.80;;;17.70;99.90;;;;;;5010011;28;20900;-64
2022/10/16 06:30:08;;;;;;;6.73;2.47;;;17.80;99.90;;;;;;5018580;28;20304;-64
2022/10/16 06:32:33;;;;;;;5.57;3.03;;;17.80;99.90;;;;;;5015884;28;20463;-63
2022/10/16 06:34:59;;;;;;;5.73;3.07;;;17.80;99.90;;;;;;5015128;28;20561;-63
2022/10/16 06:37:24;;;;;;;7.03;3.23;;;17.80;99.90;;;;;;5015881;28;20185;-63
2022/10/16 06:39:52;;;;;;;7.67;3.57;;;17.80;99.90;;;;;;5018232;28;21004;-63
2022/10/16 06:42:18;;;;;;;5.50;3.37;;;17.80;99.90;;;;;;5015642;28;20236;-64
2022/10/16 06:44:44;;;;;;;6.43;3.00;;;17.80;99.90;;;;;;5015135;28;20526;-65
2022/10/16 06:47:10;;;;;;;3.80;2.63;;;17.80;99.90;;;;;;5001763;28;20864;-65
2022/10/16 06:49:35;;;;;;;7.50;2.80;;;17.90;99.90;;;;;;4998390;28;20471;-63
2022/10/16 06:52:01;;;;;;;6.27;2.67;;;17.90;99.90;;;;;;5014352;28;20215;-64
2022/10/16 06:54:27;;;;;;;3.03;2.60;;;17.90;99.90;;;;;;5014655;28;20189;-64
2022/10/16 06:56:54;;;;;;;4.77;3.27;;;17.90;99.90;;;;;;5012690;28;20439;-65
2022/10/16 06:59:20;;;;;;;6.17;3.63;;;17.90;99.90;;;;;;5014995;28;20447;-64
2022/10/16 07:01:46;;;;;;;2.80;2.23;;;18.00;99.90;;;;;;5005955;28;20471;-63
2022/10/16 07:04:12;;;;;;;3.70;2.70;;;18.00;99.90;;;;;;5016779;28;20497;-64
2022/10/16 07:06:38;;;;;;;4.20;3.10;;;18.00;99.90;;;;;;5000847;28;20475;-64
2022/10/16 07:09:06;;;;;;;4.47;2.87;;;18.10;99.90;;;;;;5013176;28;20401;-64
2022/10/16 07:11:32;;;;;;;4.90;2.60;;;18.10;99.90;;;;;;5007427;28;20255;-64
2022/10/16 07:13:58;;;;;;;4.50;3.00;;;18.20;99.90;;;;;;5020113;28;20485;-64
2022/10/16 07:16:27;;;;;;;5.27;2.60;;;18.20;99.90;;;;;;5013055;28;20482;-64
2022/10/16 07:18:58;;;;;;;4.17;2.83;;;18.20;99.90;;;;;;5016198;28;20189;-64
2022/10/16 07:21:26;;;;;;;5.40;2.40;;;18.30;99.90;;;;;;5012932;28;20570;-64
2022/10/16 07:23:53;;;;;;;3.23;2.00;;;18.30;99.90;;;;;;5012606;28;20460;-64
2022/10/16 07:26:19;;;;;;;3.40;3.03;;;18.30;99.90;;;;;;5011314;28;20958;-64
2022/10/16 07:28:45;;;;;;;5.90;2.93;;;18.30;99.90;;;;;;5013396;28;20466;-64
2022/10/16 07:31:13;;;;;;;5.80;2.37;;;18.30;99.90;;;;;;5012474;28;20222;-64
2022/10/16 07:33:41;;;;;;;11.43;3.00;;;18.40;99.90;;;;;;5013489;28;20189;-64
2022/10/16 07:36:10;;;;;;;6.40;2.80;;;18.40;99.90;;;;;;5017757;28;20533;-64
2022/10/16 07:38:36;;;;;;;7.53;3.07;;;18.40;99.90;;;;;;5014086;28;20435;-65
2022/10/16 07:41:05;;;;;;;7.10;3.00;;;18.40;99.90;;;;;;5008322;28;20966;-65
2022/10/16 07:43:31;;;;;;;6.93;3.40;;;18.40;99.90;;;;;;5013151;28;20553;-64
2022/10/16 07:45:57;;;;;;;5.40;2.90;;;18.50;99.90;;;;;;5013338;28;20475;-64
2022/10/16 07:48:26;;;;;;;5.70;2.80;;;18.50;99.90;;;;;;5016095;28;20478;-64
2022/10/16 07:50:51;;;;;;;5.73;3.43;;;18.60;99.90;;;;;;5014732;28;20202;-64
2022/10/16 07:53:17;;;;;;;4.40;2.90;;;18.70;99.90;;;;;;5014437;28;20467;-64
2022/10/16 07:55:43;;;;;;;9.43;3.00;;;18.70;99.90;;;;;;5017451;28;20189;-64
2022/10/16 07:58:08;;;;;;;4.13;2.80;;;18.70;99.90;;;;;;5016093;28;20181;-65
2022/10/16 08:00:36;;;;;;;4.10;2.80;;;18.80;99.90;;;;;;5011990;28;20657;-64
2022/10/16 08:03:02;;;;;;;3.70;2.57;;;18.80;99.90;;;;;;5012922;28;20215;-64
2022/10/16 08:05:32;;;;;;;4.57;2.07;;;18.80;99.90;;;;;;5014715;28;20462;-64
2022/10/16 08:07:58;;;;;;;5.03;3.10;;;18.90;99.90;;;;;;5015746;28;20227;-64
2022/10/16 08:10:26;;;;;;;3.17;2.50;;;18.90;99.90;;;;;;5015928;28;20491;-65
2022/10/16 08:12:52;;;;;;;2.40;2.03;;;18.90;99.90;;;;;;5018249;28;20787;-65
2022/10/16 08:15:19;;;;;;;4.63;2.87;;;19.00;99.90;;;;;;5018084;28;20432;-64
2022/10/16 08:17:44;;;;;;;3.90;2.60;;;19.00;99.90;;;;;;5020893;28;20184;-65
2022/10/16 08:20:11;;;;;;;4.13;2.87;;;19.00;99.90;;;;;;5016313;28;20431;-64
2022/10/16 08:22:36;;;;;;;6.87;2.77;;;19.00;99.90;;;;;;5011509;28;20463;-64
2022/10/16 08:25:02;;;;;;;3.77;2.87;;;19.10;99.90;;;;;;5015814;28;20435;-64
2022/10/16 08:27:32;;;;;;;3.77;3.30;;;19.10;99.90;;;;;;5009744;28;20212;-64
2022/10/16 08:29:57;;;;;;;4.70;2.50;;;19.20;99.90;;;;;;5012939;28;20439;-64
2022/10/16 08:32:23;;;;;;;4.27;2.30;;;19.30;99.90;;;;;;5009879;28;20516;-64
2022/10/16 08:34:49;;;;;;;3.27;2.27;;;19.30;99.90;;;;;;5019293;28;20193;-64
2022/10/16 08:37:14;;;;;;;3.47;2.77;;;19.30;99.90;;;;;;5017087;28;20184;-64
2022/10/16 08:39:40;;;;;;;9.60;2.40;;;19.40;99.90;;;;;;5010686;28;20227;-64
2022/10/16 08:42:44;;;;;;;4.00;2.17;;;19.50;99.90;;;;;;5011585;28;20212;-64
2022/10/16 08:45:21;;;;;;;5.97;2.70;;;19.50;99.90;;;;;;5011074;28;20211;-65
2022/10/16 08:48:10;;;;;;;3.70;2.10;;;19.60;99.90;;;;;;5011653;28;20467;-64
2022/10/16 08:50:38;;;;;;;4.33;2.73;;;19.60;99.90;;;;;;5018333;28;20815;-64
2022/10/16 08:53:05;;;;;;;3.10;2.40;;;19.60;99.90;;;;;;5015062;28;20470;-64
2022/10/16 08:55:43;;;;;;;4.07;2.27;;;19.70;99.90;;;;;;5013316;28;20493;-66
2022/10/16 08:58:17;;;;;;;4.40;2.33;;;19.70;99.90;;;;;;5019227;28;20583;-64
2022/10/16 09:00:47;;;;;;;6.53;2.53;;;19.70;99.90;;;;;;5016120;28;20431;-64
2022/10/16 09:03:58;;;;;;;7.00;2.10;;;19.80;99.90;;;;;;5014861;28;20457;-65
2022/10/16 09:06:29;;;;;;;4.40;3.07;;;19.80;99.90;;;;;;4941394;28;20829;-65
2022/10/16 09:09:12;;;;;;;6.57;2.57;;;19.70;99.90;;;;;;5010307;28;20471;-65
2022/10/16 09:12:00;;;;;;;3.77;2.60;;;19.60;99.90;;;;;;5015269;28;20543;-64
2022/10/16 09:14:44;;;;;;;5.10;2.67;;;19.60;99.90;;;;;;5026501;28;20533;-64
2022/10/16 09:17:31;;;;;;;4.60;3.10;;;19.70;99.90;;;;;;5020836;28;20541;-65
2022/10/16 09:20:20;;;;;;;7.90;2.63;;;19.80;99.90;;;;;;5020914;28;21068;-64
2022/10/16 09:22:45;;;;;;;9.90;2.67;;;19.80;99.90;;;;;;5021312;28;20557;-64
2022/10/16 09:25:17;;;;;;;3.00;2.43;;;19.90;99.90;;;;;;5002380;28;21064;-64
2022/10/16 09:27:47;;;;;;;4.20;2.50;;;19.90;99.90;;;;;;5018196;28;20211;-63
2022/10/16 09:30:21;;;;;;;4.50;2.67;;;19.90;99.90;;;;;;5022063;28;20443;-64
2022/10/16 09:32:51;;;;;;;6.13;3.27;;;19.70;99.90;;;;;;5024775;28;20434;-63
2022/10/16 09:35:32;;;;;;;4.57;3.50;;;19.60;99.90;;;;;;4999011;28;20504;-64
2022/10/16 09:37:58;;;;;;;7.40;2.67;;;19.60;99.90;;;;;;5021056;28;20488;-64
2022/10/16 09:40:34;;;;;;;3.53;2.90;;;19.50;99.90;;;;;;5010495;28;21143;-64
2022/10/16 09:43:18;;;;;;;3.00;2.70;;;19.60;99.90;;;;;;5014777;28;20211;-64
2022/10/16 09:45:53;;;;;;;7.00;3.07;;;19.70;99.90;;;;;;5021398;28;20650;-64
2022/10/16 09:48:20;;;;;;;4.70;2.60;;;19.90;99.90;;;;;;5019429;28;20467;-65
2022/10/16 09:50:59;;;;;;;9.23;7.37;;;19.90;99.90;;;;;;4995409;28;20469;-64
2022/10/16 09:53:37;;;;;;;8.20;4.77;;;20.00;99.90;;;;;;5017971;28;20446;-64
2022/10/16 09:56:05;;;;;;;5.77;3.70;;;20.10;99.90;;;;;;5017850;28;20516;-64
2022/10/16 09:58:32;;;;;;;6.43;3.10;;;20.10;99.90;;;;;;5018271;28;20501;-64
2022/10/16 10:00:59;;;;;;;6.23;2.50;;;20.20;99.90;;;;;;5019633;28;20919;-65
2022/10/16 10:03:35;;;;;;;7.10;3.90;;;20.20;99.90;;;;;;4998582;28;20825;-65
2022/10/16 10:06:07;;;;;;;4.97;3.10;;;20.30;99.90;;;;;;5017973;28;20482;-64
2022/10/16 10:08:33;;;;;;;3.87;2.77;;;20.30;99.90;;;;;;5013862;28;20472;-64
2022/10/16 10:10:58;;;;;;;4.40;2.70;;;20.30;99.90;;;;;;5015573;28;20883;-65
2022/10/16 10:13:26;;;;;;;4.93;2.63;;;20.30;99.90;;;;;;5016652;28;20195;-65
2022/10/16 10:16:05;;;;;;;;;;;;;;;;;;;;;
2022/10/16 10:18:31;;;;;;;4.00;2.70;;;20.30;99.90;;;;;;5016577;28;20446;-65
2022/10/16 10:21:02;;;;;;;4.60;3.00;;;20.20;99.90;;;;;;5014118;28;20453;-65
2022/10/16 10:23:30;;;;;;;4.77;3.07;;;20.10;99.90;;;;;;5016557;28;20558;-65
2022/10/16 10:26:18;;;;;;;2.93;2.40;;;20.10;99.90;;;;;;5015458;28;20485;-65
2022/10/16 10:28:55;;;;;;;4.77;2.73;;;20.10;99.90;;;;;;5020690;28;20917;-64
2022/10/16 10:31:36;;;;;;;10.10;2.43;;;20.20;99.90;;;;;;5015082;28;20541;-64
2022/10/16 10:34:30;;;;;;;7.60;2.77;;;20.20;99.90;;;;;;5016855;28;20925;-65
2022/10/16 10:37:23;;;;;;;3.20;2.20;;;20.30;99.90;;;;;;5018720;28;20454;-64
2022/10/16 10:40:27;;;;;;;3.60;2.53;;;20.30;99.90;;;;;;5009450;28;20435;-65
2022/10/16 10:43:03;;;;;;;5.40;2.40;;;20.40;99.90;;;;;;5015580;28;20562;-64
2022/10/16 10:45:38;;;;;;;3.80;2.50;;;20.50;99.90;;;;;;5017317;28;20465;-64
2022/10/16 10:48:16;;;;;;;3.40;2.30;;;20.60;99.90;;;;;;5021379;28;20465;-64
2022/10/16 10:50:52;;;;;;;4.30;2.80;;;20.70;99.90;;;;;;5018920;28;20863;-64
2022/10/16 10:53:37;;;;;;;3.50;2.50;;;20.90;99.90;;;;;;5017997;28;20476;-64
2022/10/16 10:56:15;;;;;;;7.80;2.60;;;21.00;99.90;;;;;;5015316;28;20949;-65
2022/10/16 10:58:57;;;;;;;3.83;2.43;;;21.20;99.90;;;;;;5013852;28;20431;-63
2022/10/16 11:01:46;;;;;;;5.47;2.40;;;21.40;99.90;;;;;;5019345;28;20510;-65
2022/10/16 11:04:50;;;;;;;8.93;2.97;;;21.50;99.90;;;;;;5001022;28;21062;-64
2022/10/16 11:07:27;;;;;;;5.73;2.97;;;21.70;99.90;;;;;;5007032;28;20462;-65
2022/10/16 11:10:01;;;;;;;9.20;2.80;;;21.80;99.90;;;;;;5017178;28;20441;-65
2022/10/16 11:12:40;;;;;;;3.83;2.70;;;21.70;99.90;;;;;;5015129;28;20820;-65
2022/10/16 11:15:17;;;;;;;2.60;2.40;;;21.90;99.90;;;;;;5017981;28;20434;-64
2022/10/16 11:18:16;;;;;;;7.60;2.50;;;21.90;99.90;;;;;;5010355;28;20882;-64
2022/10/16 11:20:50;;;;;;;6.03;2.60;;;22.10;99.90;;;;;;5011599;28;20440;-64
2022/10/16 11:23:24;;;;;;;4.50;2.40;;;22.30;99.90;;;;;;5003213;28;20455;-65
2022/10/16 11:25:51;;;;;;;6.40;2.80;;;22.30;99.90;;;;;;5010603;28;20438;-64
2022/10/16 11:28:34;;;;;;;3.03;2.20;;;22.50;99.90;;;;;;5016262;28;20973;-64
2022/10/16 11:31:17;;;;;;;3.87;2.60;;;22.60;99.90;;;;;;5013518;28;20454;-64
2022/10/16 11:33:55;;;;;;;3.50;2.40;;;22.70;99.90;;;;;;5013967;28;20439;-63
2022/10/16 11:36:36;;;;;;;3.30;2.13;;;22.80;99.90;;;;;;5011481;28;20435;-64
2022/10/16 11:39:27;;;;;;;6.53;2.97;;;22.90;99.90;;;;;;5012116;28;20508;-64
2022/10/16 11:42:13;;;;;;;8.60;2.40;;;23.00;99.90;;;;;;5011130;28;20458;-64
2022/10/16 11:45:02;;;;;;;6.00;3.50;;;23.10;99.90;;;;;;5000396;28;20556;-64
2022/10/16 11:47:44;;;;;;;4.63;2.40;;;23.00;99.90;;;;;;5015534;28;20434;-64
2022/10/16 11:50:34;;;;;;;2.90;2.00;;;23.10;99.90;;;;;;5014876;28;20443;-63
2022/10/16 11:53:31;;;;;;;3.67;2.50;;;23.30;99.90;;;;;;5012630;28;20467;-63
2022/10/16 11:55:56;;;;;;;5.73;2.30;;;23.50;99.90;;;;;;5018339;28;20434;-64
2022/10/16 11:58:38;;;;;;;2.80;2.07;;;23.50;99.90;;;;;;5014488;28;20435;-64
2022/10/16 12:01:07;;;;;;;6.40;2.50;;;23.70;99.90;;;;;;5015862;28;20219;-63
2022/10/16 12:03:48;;;;;;;3.97;1.93;;;23.90;99.90;;;;;;5018460;28;20522;-64
2022/10/16 12:06:29;;;;;;;8.40;2.50;;;24.00;99.90;;;;;;5014964;28;20434;-64
2022/10/16 12:08:56;;;;;;;4.30;2.33;;;23.90;99.90;;;;;;5016002;28;20552;-65
2022/10/16 12:11:27;;;;;;;3.20;2.37;;;23.90;99.90;;;;;;5014431;28;20516;-64
2022/10/16 12:14:11;;;;;;;7.47;2.27;;;23.90;99.90;;;;;;5016973;28;20820;-64
2022/10/16 12:16:58;;;;;;;2.83;2.17;;;24.00;99.90;;;;;;5018435;28;20478;-64
2022/10/16 12:19:25;;;;;;;3.57;2.20;;;23.90;99.90;;;;;;5014035;28;20461;-64
2022/10/16 12:21:54;;;;;;;5.17;2.10;;;23.80;99.90;;;;;;5014440;28;20516;-64
2022/10/16 12:24:34;;;;;;;4.23;2.50;;;23.90;99.90;;;;;;5020276;28;20505;-65
2022/10/16 12:27:00;;;;;;;2.97;2.40;;;23.80;99.90;;;;;;5016228;28;20449;-64
2022/10/16 12:29:39;;;;;;;2.37;2.00;;;23.80;99.90;;;;;;5016399;28;20476;-64
2022/10/16 12:32:25;;;;;;;3.30;2.47;;;23.80;99.90;;;;;;5012683;28;20522;-64
2022/10/16 12:34:51;;;;;;;3.43;2.33;;;23.80;99.90;;;;;;5016346;28;20435;-64
2022/10/16 12:37:23;;;;;;;3.83;3.10;;;24.00;99.90;;;;;;5016424;28;20444;-64
2022/10/16 12:39:49;;;;;;;5.60;2.30;;;24.10;99.90;;;;;;5014410;28;20447;-64
2022/10/16 12:42:23;;;;;;;5.37;2.30;;;24.20;99.90;;;;;;5021942;28;20469;-64
2022/10/16 12:44:49;;;;;;;4.40;2.30;;;24.20;99.90;;;;;;5019558;28;20530;-64
2022/10/16 12:47:29;;;;;;;3.70;2.60;;;24.20;99.90;;;;;;5005892;28;20580;-64
2022/10/16 12:49:55;;;;;;;5.83;2.70;;;24.10;99.90;;;;;;5015899;28;20274;-64
2022/10/16 12:52:35;;;;;;;3.90;2.73;;;24.10;99.90;;;;;;5020301;28;20462;-64
2022/10/16 12:55:01;;;;;;;3.20;2.60;;;24.10;99.90;;;;;;5015440;28;20219;-64
2022/10/16 12:57:27;;;;;;;3.23;2.83;;;24.10;99.90;;;;;;5023750;28;22051;-64
2022/10/16 13:00:25;;;;;;;3.93;2.43;;;24.00;99.90;;;;;;5017195;28;20654;-64
2022/10/16 13:03:25;;;;;;;4.53;3.10;;;23.90;99.90;;;;;;5020278;28;20212;-65
2022/10/16 13:06:00;;;;;;;2.90;2.30;;;23.80;99.90;;;;;;5020005;28;20454;-65
2022/10/16 13:09:13;;;;;;;6.10;2.80;;;23.70;99.90;;;;;;5019597;28;20474;-65